createdAt,value
2018-08-16T00:00:56.620Z,7.23
2018-08-16T00:03:24.735Z,6.73
2018-08-16T00:05:52.806Z,7.10
2018-08-16T00:08:21.236Z,7.03
2018-08-16T00:10:49.325Z,6.97
2018-08-16T00:13:17.453Z,7.07
2018-08-16T00:15:45.881Z,6.97
2018-08-16T00:18:14.048Z,6.63
2018-08-16T00:20:42.128Z,6.50
2018-08-16T00:23:10.745Z,7.67
2018-08-16T00:25:38.817Z,8.20
2018-08-16T00:28:06.888Z,7.73
2018-08-16T00:30:34.965Z,6.73
2018-08-16T00:33:03.303Z,7.53
2018-08-16T00:35:31.377Z,7.90
2018-08-16T00:37:59.512Z,7.27
2018-08-16T00:40:28.169Z,7.43
2018-08-16T00:42:56.240Z,7.23
2018-08-16T00:45:24.468Z,7.77
2018-08-16T00:47:52.584Z,7.90
2018-08-16T00:50:20.649Z,7.13
2018-08-16T00:52:48.801Z,7.60
2018-08-16T00:55:17.011Z,7.77
2018-08-16T00:57:45.077Z,7.07
2018-08-16T01:00:14.933Z,7.27
2018-08-16T01:02:43.052Z,7.80
2018-08-16T01:05:12.007Z,7.80
2018-08-16T01:07:40.472Z,7.40
2018-08-16T01:10:09.681Z,7.00
2018-08-16T01:12:37.779Z,8.10
2018-08-16T01:15:07.028Z,8.00
2018-08-16T01:17:35.153Z,7.73
2018-08-16T01:20:03.261Z,7.60
2018-08-16T01:22:31.525Z,7.77
2018-08-16T01:24:59.600Z,8.20
2018-08-16T01:27:27.663Z,7.93
2018-08-16T01:29:55.724Z,7.67
2018-08-16T01:32:23.875Z,7.70
2018-08-16T01:34:52.054Z,8.30
2018-08-16T01:37:20.108Z,7.63
2018-08-16T01:39:48.185Z,7.77
2018-08-16T01:42:16.283Z,8.27
2018-08-16T01:44:44.447Z,8.40
2018-08-16T01:47:12.501Z,8.33
2018-08-16T01:49:40.568Z,8.13
2018-08-16T01:52:08.649Z,7.80
2018-08-16T01:54:36.746Z,8.43
2018-08-16T01:57:05.183Z,8.13
2018-08-16T01:59:33.289Z,7.60
2018-08-16T02:02:01.408Z,8.00
2018-08-16T02:04:29.573Z,8.20
2018-08-16T02:06:57.633Z,8.10
2018-08-16T02:09:25.710Z,8.80
2018-08-16T02:11:54.021Z,8.17
2018-08-16T02:14:22.212Z,8.60
2018-08-16T02:16:51.243Z,8.33
2018-08-16T02:19:19.808Z,8.90
2018-08-16T02:21:47.892Z,7.97
2018-08-16T02:24:15.995Z,8.13
2018-08-16T02:26:44.028Z,8.10
2018-08-16T02:29:12.586Z,8.03
2018-08-16T02:31:40.722Z,8.60
2018-08-16T02:34:08.998Z,7.53
2018-08-16T02:36:37.217Z,8.00
2018-08-16T02:39:06.684Z,8.23
2018-08-16T02:41:35.305Z,8.60
2018-08-16T02:44:03.470Z,7.73
2018-08-16T02:46:31.608Z,8.00
2018-08-16T02:48:59.680Z,7.67
2018-08-16T02:51:27.860Z,8.30
2018-08-16T02:53:56.416Z,8.03
2018-08-16T02:56:24.541Z,8.20
2018-08-16T02:58:52.607Z,7.97
2018-08-16T03:01:20.672Z,7.90
2018-08-16T03:03:48.731Z,7.57
2018-08-16T03:06:16.831Z,8.43
2018-08-16T03:08:44.904Z,8.03
2018-08-16T03:11:13.074Z,8.33
2018-08-16T03:13:41.149Z,9.47
2018-08-16T03:16:09.224Z,8.20
2018-08-16T03:18:37.290Z,8.00
2018-08-16T03:21:05.361Z,9.03
2018-08-16T03:23:33.429Z,8.20
2018-08-16T03:26:01.639Z,8.00
2018-08-16T03:28:29.677Z,8.20
2018-08-16T03:30:57.740Z,8.93
2018-08-16T03:33:25.792Z,8.63
2018-08-16T03:35:53.874Z,8.00
2018-08-16T03:38:23.060Z,8.67
2018-08-16T03:40:51.137Z,8.80
2018-08-16T03:43:19.204Z,9.10
2018-08-16T03:45:47.260Z,8.97
2018-08-16T03:48:15.557Z,8.60
2018-08-16T03:50:43.737Z,9.13
2018-08-16T03:53:11.841Z,8.60
2018-08-16T03:55:40.010Z,7.97
2018-08-16T03:58:08.351Z,8.60
2018-08-16T04:00:36.541Z,8.43
2018-08-16T04:03:06.342Z,9.00
2018-08-16T04:05:34.524Z,8.70
2018-08-16T04:08:02.805Z,8.13
2018-08-16T04:10:30.876Z,8.63
2018-08-16T04:12:58.960Z,9.30
2018-08-16T04:15:27.048Z,9.00
2018-08-16T04:17:55.143Z,9.50
2018-08-16T04:20:23.344Z,10.00
2018-08-16T04:22:51.481Z,8.70
2018-08-16T04:25:19.581Z,9.07
2018-08-16T04:27:47.668Z,8.80
2018-08-16T04:30:16.086Z,9.77
2018-08-16T04:32:44.310Z,9.40
2018-08-16T04:35:12.605Z,8.87
2018-08-16T04:37:40.834Z,9.33
2018-08-16T04:40:09.360Z,9.13
2018-08-16T04:42:37.514Z,9.17
2018-08-16T04:45:06.856Z,9.10
2018-08-16T04:47:34.949Z,9.17
2018-08-16T04:50:03.049Z,9.53
2018-08-16T04:52:31.122Z,9.40
2018-08-16T04:54:59.204Z,10.10
2018-08-16T04:57:27.267Z,9.57
2018-08-16T04:59:57.708Z,10.20
2018-08-16T05:02:25.752Z,9.90
2018-08-16T05:04:53.949Z,9.67
2018-08-16T05:07:22.012Z,9.40
2018-08-16T05:09:50.197Z,9.40
2018-08-16T05:12:18.602Z,10.17
2018-08-16T05:14:46.691Z,10.20
2018-08-16T05:17:14.824Z,9.03
2018-08-16T05:19:43.092Z,9.73
2018-08-16T05:22:11.177Z,9.40
2018-08-16T05:24:39.236Z,9.50
2018-08-16T05:27:07.673Z,9.30
2018-08-16T05:29:35.754Z,9.30
2018-08-16T05:32:03.836Z,9.37
2018-08-16T05:34:31.877Z,8.73
2018-08-16T05:37:00.325Z,9.80
2018-08-16T05:39:28.629Z,8.63
2018-08-16T05:41:57.037Z,8.77
2018-08-16T05:44:25.209Z,8.77
2018-08-16T05:46:53.334Z,8.90
2018-08-16T05:49:21.400Z,8.30
2018-08-16T05:51:49.505Z,9.70
2018-08-16T05:54:17.604Z,9.30
2018-08-16T05:56:45.684Z,9.00
2018-08-16T05:59:13.767Z,10.10
2018-08-16T06:01:42.129Z,8.83
2018-08-16T06:04:10.602Z,9.80
2018-08-16T06:06:38.701Z,9.63
2018-08-16T06:09:07.681Z,10.40
2018-08-16T06:11:35.924Z,9.53
2018-08-16T06:14:04.642Z,10.30
2018-08-16T06:16:32.708Z,11.03
2018-08-16T06:19:00.801Z,9.90
2018-08-16T06:21:28.908Z,10.40
2018-08-16T06:23:57.393Z,10.43
2018-08-16T06:26:25.633Z,9.40
2018-08-16T06:28:53.727Z,10.70
2018-08-16T06:31:22.386Z,10.20
2018-08-16T06:33:50.569Z,9.20
2018-08-16T06:36:18.661Z,9.60
2018-08-16T06:38:46.797Z,8.93
2018-08-16T06:41:15.057Z,9.70
2018-08-16T06:43:43.153Z,8.90
2018-08-16T06:46:11.615Z,8.57
2018-08-16T06:48:39.926Z,8.47
2018-08-16T06:51:08.005Z,8.70
2018-08-16T06:53:36.157Z,8.23
2018-08-16T06:56:04.247Z,8.10
2018-08-16T06:58:32.308Z,7.83
2018-08-16T07:01:00.437Z,7.30
2018-08-16T07:03:28.552Z,7.07
2018-08-16T07:05:56.624Z,6.67
2018-08-16T07:08:24.726Z,6.67
2018-08-16T07:10:52.817Z,6.53
2018-08-16T07:13:20.920Z,6.50
2018-08-16T07:15:48.980Z,7.20
2018-08-16T07:18:17.040Z,6.97
2018-08-16T07:20:45.203Z,6.90
2018-08-16T07:23:13.288Z,6.10
2018-08-16T07:25:41.383Z,5.60
2018-08-16T07:28:09.453Z,7.83
2018-08-16T07:30:37.574Z,6.47
2018-08-16T07:33:05.658Z,6.20
2018-08-16T07:35:33.732Z,6.30
2018-08-16T07:38:01.830Z,6.00
2018-08-16T07:40:30.309Z,6.50
2018-08-16T07:42:58.379Z,6.63
2018-08-16T07:45:26.536Z,6.33
2018-08-16T07:47:55.237Z,5.80
2018-08-16T07:50:23.339Z,6.27
2018-08-16T07:52:51.409Z,6.30
2018-08-16T07:55:19.481Z,6.43
2018-08-16T07:57:47.661Z,6.63
2018-08-16T08:00:18.253Z,5.60
2018-08-16T08:02:47.233Z,5.40
2018-08-16T08:05:15.316Z,4.73
2018-08-16T08:07:43.748Z,4.73
2018-08-16T08:10:12.165Z,5.60
2018-08-16T08:12:40.267Z,5.20
2018-08-16T08:15:09.868Z,4.80
2018-08-16T08:17:38.460Z,4.67
2018-08-16T08:20:07.573Z,4.67
2018-08-16T08:22:35.660Z,4.00
2018-08-16T08:25:03.978Z,4.30
2018-08-16T08:27:32.061Z,4.93
2018-08-16T08:30:00.161Z,4.57
2018-08-16T08:32:28.580Z,5.00
2018-08-16T08:34:56.689Z,4.40
2018-08-16T08:37:30.373Z,4.60
2018-08-16T08:39:58.497Z,4.57
2018-08-16T08:42:26.561Z,4.23
2018-08-16T08:44:54.646Z,5.07
2018-08-16T08:47:27.042Z,4.33
2018-08-16T08:49:55.665Z,4.20
2018-08-16T08:52:23.713Z,4.17
2018-08-16T08:54:57.693Z,4.43
2018-08-16T08:57:32.133Z,4.73
2018-08-16T09:00:00.345Z,4.30
2018-08-16T09:02:28.548Z,4.80
2018-08-16T09:04:56.660Z,4.60
2018-08-16T09:07:25.308Z,3.53
2018-08-16T09:11:31.899Z,4.13
2018-08-16T09:14:06.837Z,4.50
2018-08-16T09:16:38.473Z,4.30
2018-08-16T09:19:07.460Z,3.70
2018-08-16T09:21:35.888Z,3.93
2018-08-16T09:24:04.088Z,3.53
2018-08-16T09:26:37.556Z,3.20
2018-08-16T09:31:17.190Z,3.23
2018-08-16T09:33:51.132Z,3.40
2018-08-16T09:36:19.561Z,3.97
2018-08-16T09:38:47.664Z,3.90
2018-08-16T09:41:15.749Z,3.80
2018-08-16T09:43:43.873Z,3.30
2018-08-16T09:46:46.130Z,3.20
2018-08-16T09:49:14.881Z,2.90
2018-08-16T09:51:44.546Z,2.87
2018-08-16T09:54:13.095Z,2.63
2018-08-16T09:56:41.317Z,3.00
2018-08-16T09:59:09.528Z,3.13
2018-08-16T10:01:37.741Z,2.80
2018-08-16T10:04:06.738Z,3.10
2018-08-16T10:06:35.493Z,3.10
2018-08-16T10:09:05.726Z,3.17
2018-08-16T10:11:33.805Z,2.93
2018-08-16T10:14:01.890Z,2.70
2018-08-16T10:16:29.934Z,2.53
2018-08-16T10:18:57.986Z,3.03
2018-08-16T10:21:26.419Z,2.77
2018-08-16T10:23:54.464Z,2.40
2018-08-16T10:26:22.582Z,2.87
2018-08-16T10:28:50.689Z,2.80
2018-08-16T10:31:18.755Z,2.57
2018-08-16T10:33:46.842Z,2.77
2018-08-16T10:36:14.972Z,3.00
2018-08-16T10:38:43.039Z,2.57
2018-08-16T10:41:11.110Z,2.87
2018-08-16T10:43:39.163Z,2.63
2018-08-16T10:46:07.372Z,2.60
2018-08-16T10:48:35.477Z,2.50
2018-08-16T10:51:03.924Z,2.57
2018-08-16T10:53:32.357Z,2.17
2018-08-16T10:56:01.113Z,2.60
2018-08-16T10:58:29.833Z,2.57
2018-08-16T11:00:58.099Z,3.10
2018-08-16T11:03:26.213Z,2.87
2018-08-16T11:05:55.160Z,2.53
2018-08-16T11:08:23.558Z,2.70
2018-08-16T11:10:52.018Z,2.77
2018-08-16T11:13:20.390Z,2.93
2018-08-16T11:15:48.453Z,2.80
2018-08-16T11:18:16.885Z,2.77
2018-08-16T11:20:45.392Z,2.80
2018-08-16T11:23:13.468Z,2.70
2018-08-16T11:25:41.593Z,2.60
2018-08-16T11:28:09.974Z,2.47
2018-08-16T11:30:38.650Z,2.50
2018-08-16T11:33:07.169Z,2.70
2018-08-16T11:35:35.247Z,2.70
2018-08-16T11:38:03.349Z,2.87
2018-08-16T11:40:31.627Z,2.80
2018-08-16T11:42:59.876Z,2.50
2018-08-16T11:45:28.032Z,2.40
2018-08-16T11:47:56.173Z,2.57
2018-08-16T11:50:24.276Z,2.90
2018-08-16T11:52:52.365Z,2.70
2018-08-16T11:55:20.837Z,2.57
2018-08-16T11:57:49.004Z,3.13
2018-08-16T12:00:17.102Z,2.67
2018-08-16T12:02:45.183Z,2.63
2018-08-16T12:05:13.600Z,2.50
2018-08-16T12:07:41.663Z,2.10
2018-08-16T12:10:09.741Z,2.40
2018-08-16T12:12:37.816Z,2.40
2018-08-16T12:15:06.634Z,2.77
2018-08-16T12:17:35.006Z,2.73
2018-08-16T12:20:03.096Z,2.73
2018-08-16T12:22:31.178Z,2.70
2018-08-16T12:24:59.241Z,2.70
2018-08-16T12:27:27.317Z,2.87
2018-08-16T12:29:55.426Z,2.50
2018-08-16T12:32:23.684Z,2.40
2018-08-16T12:34:51.822Z,2.60
2018-08-16T12:37:20.066Z,2.93
2018-08-16T12:39:48.549Z,2.60
2018-08-16T12:42:16.769Z,2.60
2018-08-16T12:44:44.928Z,2.83
2018-08-16T12:47:13.101Z,2.63
2018-08-16T12:49:41.673Z,2.63
2018-08-16T12:52:09.795Z,2.20
2018-08-16T12:54:37.877Z,3.53
2018-08-16T12:57:06.067Z,2.50
2018-08-16T12:59:34.393Z,2.70
2018-08-16T13:02:02.481Z,2.53
2018-08-16T13:04:30.652Z,2.60
2018-08-16T13:06:59.056Z,2.33
2018-08-16T13:09:27.287Z,2.60
2018-08-16T13:11:55.346Z,2.60
2018-08-16T13:14:23.392Z,2.50
2018-08-16T13:16:51.558Z,2.60
2018-08-16T13:19:19.634Z,2.50
2018-08-16T13:21:47.809Z,2.57
2018-08-16T13:24:15.990Z,2.43
2018-08-16T13:26:44.045Z,2.30
2018-08-16T13:29:12.146Z,2.57
2018-08-16T13:31:40.216Z,2.33
2018-08-16T13:34:08.386Z,2.80
2018-08-16T13:36:36.479Z,2.53
2018-08-16T13:39:06.660Z,2.73
2018-08-16T13:41:34.795Z,2.60
2018-08-16T13:44:02.989Z,2.30
2018-08-16T13:46:31.089Z,2.80
2018-08-16T13:48:59.237Z,2.50
2018-08-16T13:51:27.313Z,3.00
2018-08-16T13:53:55.539Z,2.57
2018-08-16T13:56:23.599Z,2.40
2018-08-16T13:58:51.658Z,2.70
2018-08-16T14:01:19.721Z,2.80
2018-08-16T14:03:47.844Z,2.60
2018-08-16T14:06:16.096Z,2.57
2018-08-16T14:08:44.173Z,2.00
2018-08-16T14:11:12.267Z,2.80
2018-08-16T14:13:41.399Z,2.17
2018-08-16T14:16:09.549Z,2.60
2018-08-16T14:18:38.005Z,2.40
2018-08-16T14:21:06.625Z,2.20
2018-08-16T14:23:34.807Z,3.10
2018-08-16T14:26:02.912Z,2.20
2018-08-16T14:28:31.162Z,2.27
2018-08-16T14:30:59.471Z,2.13
2018-08-16T14:33:27.562Z,2.40
2018-08-16T14:35:55.612Z,1.97
2018-08-16T14:38:23.653Z,2.23
2018-08-16T14:40:51.868Z,2.47
2018-08-16T14:43:20.286Z,2.50
2018-08-16T14:45:48.373Z,2.20
2018-08-16T14:48:16.502Z,2.37
2018-08-16T14:50:44.565Z,2.60
2018-08-16T14:53:12.633Z,2.30
2018-08-16T14:55:40.709Z,2.10
2018-08-16T14:58:08.784Z,2.40
2018-08-16T15:00:36.841Z,2.10
2018-08-16T15:03:05.088Z,2.40
2018-08-16T15:05:33.309Z,2.10
2018-08-16T15:08:01.478Z,2.50
2018-08-16T15:10:29.577Z,2.30
2018-08-16T15:12:57.701Z,2.20
2018-08-16T15:15:25.786Z,2.60
2018-08-16T15:17:53.819Z,2.00
2018-08-16T15:20:21.906Z,2.30
2018-08-16T15:22:49.954Z,2.10
2018-08-16T15:25:18.174Z,2.20
2018-08-16T15:27:46.241Z,2.30
2018-08-16T15:30:14.341Z,2.17
2018-08-16T15:32:42.412Z,2.33
2018-08-16T15:35:10.497Z,2.13
2018-08-16T15:37:38.589Z,1.90
2018-08-16T15:40:06.913Z,2.10
2018-08-16T15:42:34.981Z,2.10
2018-08-16T15:45:03.077Z,2.33
2018-08-16T15:47:31.175Z,1.83
2018-08-16T15:49:59.249Z,1.90
2018-08-16T15:52:27.405Z,1.90
2018-08-16T15:54:55.488Z,1.80
2018-08-16T15:57:23.565Z,2.10
2018-08-16T15:59:51.617Z,2.13
2018-08-16T16:02:19.701Z,2.10
2018-08-16T16:04:48.646Z,2.30
2018-08-16T16:07:16.812Z,1.83
2018-08-16T16:09:45.016Z,2.20
2018-08-16T16:12:13.099Z,2.23
2018-08-16T16:14:41.192Z,2.10
2018-08-16T16:17:09.363Z,2.10
2018-08-16T16:19:37.629Z,2.10
2018-08-16T16:22:05.739Z,2.20
2018-08-16T16:24:33.831Z,2.00
2018-08-16T16:27:01.976Z,2.40
2018-08-16T16:29:30.040Z,2.37
2018-08-16T16:31:58.165Z,2.07
2018-08-16T16:34:26.257Z,2.47
2018-08-16T16:36:54.661Z,2.13
2018-08-16T16:39:22.725Z,2.40
2018-08-16T16:41:50.881Z,2.00
2018-08-16T16:44:19.000Z,2.40
2018-08-16T16:46:47.076Z,2.17
2018-08-16T16:49:19.481Z,2.30
2018-08-16T16:51:48.089Z,2.33
2018-08-16T16:54:16.189Z,2.03
2018-08-16T16:56:44.617Z,2.53
2018-08-16T16:59:13.007Z,2.50
2018-08-16T17:01:41.481Z,2.43
2018-08-16T17:04:09.680Z,2.63
2018-08-16T17:06:38.044Z,2.07
2018-08-16T17:09:06.784Z,2.73
2018-08-16T17:11:34.841Z,2.30
2018-08-16T17:14:03.294Z,2.40
2018-08-16T17:16:31.757Z,2.40
2018-08-16T17:18:59.910Z,2.07
2018-08-16T17:21:28.042Z,2.27
2018-08-16T17:23:56.098Z,2.60
2018-08-16T17:26:24.262Z,2.63
2018-08-16T17:28:52.492Z,2.50
2018-08-16T17:31:20.562Z,2.70
2018-08-16T17:33:48.633Z,2.30
2018-08-16T17:36:16.737Z,3.10
2018-08-16T17:38:44.788Z,2.70
2018-08-16T17:41:12.875Z,2.40
2018-08-16T17:43:40.956Z,2.67
2018-08-16T17:46:09.052Z,3.50
2018-08-16T17:48:37.653Z,2.53
2018-08-16T17:51:05.886Z,3.13
2018-08-16T17:53:34.012Z,3.20
2018-08-16T17:56:02.166Z,3.07
2018-08-16T17:58:30.360Z,3.50
2018-08-16T18:00:58.920Z,4.37
2018-08-16T18:03:27.041Z,3.40
2018-08-16T18:05:55.159Z,3.37
2018-08-16T18:08:23.242Z,3.00
2018-08-16T18:10:51.497Z,2.83
2018-08-16T18:13:19.616Z,3.10
2018-08-16T18:15:47.725Z,3.20
2018-08-16T18:18:15.805Z,3.20
2018-08-16T18:20:43.906Z,4.73
2018-08-16T18:23:12.033Z,3.70
2018-08-16T18:25:40.182Z,3.17
2018-08-16T18:28:08.294Z,2.27
2018-08-16T18:30:36.418Z,2.90
2018-08-16T18:33:04.598Z,2.90
2018-08-16T18:35:33.143Z,2.90
2018-08-16T18:38:01.335Z,2.60
2018-08-16T18:40:29.559Z,2.60
2018-08-16T18:42:57.675Z,3.03
2018-08-16T18:45:25.884Z,2.67
2018-08-16T18:47:53.974Z,2.87
2018-08-16T18:50:22.189Z,2.80
2018-08-16T18:52:50.325Z,3.57
2018-08-16T18:55:18.444Z,3.20
2018-08-16T18:57:47.217Z,3.30
2018-08-16T19:00:15.349Z,3.53
2018-08-16T19:02:43.516Z,3.67
2018-08-16T19:05:11.625Z,3.53
2018-08-16T19:07:39.940Z,4.23
2018-08-16T19:10:08.767Z,3.73
2018-08-16T19:12:36.844Z,3.70
2018-08-16T19:15:05.261Z,3.53
2018-08-16T19:17:33.368Z,3.70
2018-08-16T19:20:01.489Z,3.63
2018-08-16T19:22:30.160Z,3.67
2018-08-16T19:24:58.460Z,3.37
2018-08-16T19:27:26.565Z,3.47
2018-08-16T19:29:54.737Z,3.60
2018-08-16T19:32:22.995Z,3.77
2018-08-16T19:34:51.109Z,4.10
2018-08-16T19:37:19.359Z,4.00
2018-08-16T19:39:47.428Z,3.50
2018-08-16T19:42:15.581Z,3.10
2018-08-16T19:44:43.661Z,3.77
2018-08-16T19:47:11.736Z,3.63
2018-08-16T19:49:39.824Z,3.33
2018-08-16T19:52:07.897Z,3.87
2018-08-16T19:54:36.078Z,3.57
2018-08-16T19:57:04.200Z,3.80
2018-08-16T19:59:32.298Z,3.90
2018-08-16T20:02:00.585Z,5.43
2018-08-16T20:04:29.053Z,3.80
2018-08-16T20:06:57.163Z,4.70
2018-08-16T20:09:25.504Z,4.20
2018-08-16T20:11:53.604Z,3.57
2018-08-16T20:14:21.770Z,4.03
2018-08-16T20:16:49.917Z,3.70
2018-08-16T20:19:17.994Z,3.30
2018-08-16T20:21:46.384Z,3.57
2018-08-16T20:24:14.535Z,3.67
2018-08-16T20:26:42.769Z,3.80
2018-08-16T20:29:11.064Z,3.90
2018-08-16T20:31:39.121Z,3.47
2018-08-16T20:34:07.316Z,4.00
2018-08-16T20:36:35.754Z,3.60
2018-08-16T20:39:05.193Z,3.57
2018-08-16T20:41:33.266Z,3.80
2018-08-16T20:44:01.422Z,3.97
2018-08-16T20:46:29.582Z,3.50
2018-08-16T20:48:57.696Z,4.20
2018-08-16T20:51:26.135Z,3.43
2018-08-16T20:53:54.678Z,3.33
2018-08-16T20:56:22.733Z,3.60
2018-08-16T20:58:50.787Z,3.93
2018-08-16T21:01:19.077Z,4.10
2018-08-16T21:03:47.279Z,3.77
2018-08-16T21:06:15.415Z,3.97
2018-08-16T21:08:43.561Z,4.73
2018-08-16T21:11:11.633Z,4.20
2018-08-16T21:13:39.862Z,3.60
2018-08-16T21:16:08.045Z,3.63
2018-08-16T21:18:36.309Z,4.00
2018-08-16T21:21:04.643Z,4.30
2018-08-16T21:23:32.829Z,4.67
2018-08-16T21:26:00.891Z,4.60
2018-08-16T21:28:28.969Z,4.10
2018-08-16T21:30:57.045Z,4.83
2018-08-16T21:33:25.128Z,4.50
2018-08-16T21:35:53.265Z,4.87
2018-08-16T21:38:21.332Z,4.57
2018-08-16T21:40:49.529Z,4.70
2018-08-16T21:43:17.597Z,5.00
2018-08-16T21:45:45.770Z,4.53
2018-08-16T21:48:13.948Z,4.90
2018-08-16T21:50:42.030Z,5.20
2018-08-16T21:53:10.213Z,4.90
2018-08-16T21:55:38.373Z,5.13
2018-08-16T21:58:06.445Z,4.87
2018-08-16T22:00:43.237Z,4.40
2018-08-16T22:03:11.344Z,4.63
2018-08-16T22:05:45.027Z,4.47
2018-08-16T22:08:14.365Z,4.67
2018-08-16T22:10:43.553Z,4.80
2018-08-16T22:13:11.952Z,4.20
2018-08-16T22:15:40.077Z,4.47
2018-08-16T22:18:08.546Z,4.60
2018-08-16T22:20:36.618Z,4.60
2018-08-16T22:23:04.793Z,5.40
2018-08-16T22:25:32.973Z,4.50
2018-08-16T22:28:01.043Z,4.90
2018-08-16T22:30:29.581Z,4.50
2018-08-16T22:32:57.679Z,4.40
2018-08-16T22:35:25.959Z,4.50
2018-08-16T22:37:54.030Z,4.80
2018-08-16T22:40:22.087Z,4.43
2018-08-16T22:42:50.148Z,5.70
2018-08-16T22:45:18.330Z,4.57
2018-08-16T22:47:46.488Z,4.30
2018-08-16T22:50:14.604Z,4.83
2018-08-16T22:52:42.751Z,5.07
2018-08-16T22:55:10.814Z,5.13
2018-08-16T22:57:38.942Z,5.00
2018-08-16T23:00:08.097Z,5.00
2018-08-16T23:02:36.238Z,4.83
2018-08-16T23:05:04.628Z,4.73
2018-08-16T23:07:32.961Z,5.23
2018-08-16T23:10:01.025Z,5.63
2018-08-16T23:12:29.141Z,4.97
2018-08-16T23:14:58.374Z,4.70
2018-08-16T23:17:26.502Z,3.80
2018-08-16T23:19:54.765Z,5.17
2018-08-16T23:22:22.948Z,4.93
2018-08-16T23:24:51.041Z,4.80
2018-08-16T23:27:19.220Z,4.77
2018-08-16T23:29:47.375Z,4.80
2018-08-16T23:32:15.473Z,5.87
2018-08-16T23:34:43.632Z,5.00
2018-08-16T23:37:11.700Z,4.80
2018-08-16T23:39:39.789Z,4.43
2018-08-16T23:42:07.903Z,4.80
2018-08-16T23:44:36.000Z,4.80
2018-08-16T23:47:04.072Z,4.83
2018-08-16T23:49:32.290Z,5.20
2018-08-16T23:52:00.436Z,4.73
2018-08-16T23:54:28.530Z,4.90
2018-08-16T23:56:56.625Z,4.97
2018-08-16T23:59:24.684Z,4.90
